Time;durP1;ratioP1;P1;durP2;ratioP2;P2;SDS_P1;SDS_P2;PMS_P1;PMS_P2;Temp;Humidity;BMP_temperature;BMP_pressure;BME280_temperature;BME280_humidity;BME280_pressure;Samples;Min_cycle;Max_cycle;Signal;HPM_P1;HPM_P2
2021/04/21 00:01:00;;;;;;;12.00;10.45;;;9.70;72.80;;;;;;5036985;28;20355;-72
2021/04/21 00:03:26;;;;;;;12.10;9.55;;;9.80;73.50;;;;;;5036894;28;20032;-72
2021/04/21 00:05:52;;;;;;;13.18;10.23;;;9.90;73.70;;;;;;5036870;28;20104;-72
2021/04/21 00:08:20;;;;;;;15.52;10.52;;;9.90;74.50;;;;;;5036857;28;20048;-72
2021/04/21 00:10:48;;;;;;;14.52;11.05;;;9.90;73.80;;;;;;5036870;28;20084;-72
2021/04/21 00:13:15;;;;;;;12.95;10.73;;;9.90;73.80;;;;;;5036489;28;20037;-72
2021/04/21 00:15:40;;;;;;;14.75;10.30;;;9.90;73.20;;;;;;5036780;28;20033;-72
2021/04/21 00:18:07;;;;;;;17.60;11.60;;;10.10;72.50;;;;;;5036799;28;20367;-72
2021/04/21 00:20:34;;;;;;;15.00;11.75;;;10.20;72.10;;;;;;5036451;28;20031;-72
2021/04/21 00:23:04;;;;;;;13.60;10.73;;;10.30;71.90;;;;;;5036396;28;20025;-72
2021/04/21 00:25:32;;;;;;;14.95;11.00;;;10.30;72.10;;;;;;5036270;28;20132;-72
2021/04/21 00:27:59;;;;;;;15.88;12.20;;;10.40;71.40;;;;;;5036677;28;20026;-72
2021/04/21 00:30:27;;;;;;;20.75;14.30;;;10.40;71.50;;;;;;5036354;28;20033;-72
2021/04/21 00:32:56;;;;;;;24.50;14.40;;;10.40;71.10;;;;;;5036588;28;20032;-72
2021/04/21 00:35:44;;;;;;;12.50;10.38;;;10.50;69.70;;;;;;5036536;28;20120;-72
2021/04/21 00:38:16;;;;;;;14.65;11.20;;;10.50;70.80;;;;;;5036210;28;20129;-72
2021/04/21 00:40:45;;;;;;;14.63;11.20;;;10.60;70.80;;;;;;5039786;28;20354;-72
2021/04/21 00:43:11;;;;;;;18.90;11.20;;;10.50;70.90;;;;;;5040456;28;20025;-72
2021/04/21 00:45:42;;;;;;;15.30;11.88;;;10.50;71.60;;;;;;5040342;28;20041;-72
2021/04/21 00:48:31;;;;;;;15.95;11.70;;;10.40;71.70;;;;;;5040087;28;20033;-72
2021/04/21 00:51:00;;;;;;;15.20;9.63;;;10.40;71.90;;;;;;5038986;28;20068;-72
2021/04/21 00:53:49;;;;;;;14.50;9.48;;;10.30;73.30;;;;;;5040114;28;20033;-72
2021/04/21 00:56:18;;;;;;;15.07;11.13;;;10.10;74.10;;;;;;5040236;28;20033;-72
2021/04/21 00:58:59;;;;;;;20.17;10.60;;;9.90;72.20;;;;;;5040158;28;20401;-72
2021/04/21 01:01:27;;;;;;;13.75;10.90;;;9.80;74.20;;;;;;5039741;28;20147;-72
2021/04/21 01:03:53;;;;;;;16.35;11.93;;;9.70;74.70;;;;;;5039992;28;20074;-72
2021/04/21 01:06:36;;;;;;;18.92;11.65;;;9.60;73.50;;;;;;5040020;28;20424;-72
2021/04/21 01:09:04;;;;;;;16.77;11.52;;;9.50;74.00;;;;;;5039667;28;20082;-72
2021/04/21 01:11:41;;;;;;;15.43;11.60;;;9.40;74.10;;;;;;5040011;28;20420;-72
2021/04/21 01:14:17;;;;;;;16.13;11.77;;;9.40;74.80;;;;;;5039464;28;20441;-72
2021/04/21 01:16:45;;;;;;;16.77;10.93;;;9.30;74.90;;;;;;5039871;28;20058;-72
2021/04/21 01:19:41;;;;;;;14.27;11.15;;;9.20;75.40;;;;;;5039501;28;20032;-72
2021/04/21 01:22:27;;;;;;;14.85;11.48;;;9.10;75.30;;;;;;5047304;28;20329;-72
2021/04/21 01:25:14;;;;;;;14.48;11.65;;;9.10;75.60;;;;;;5041754;28;20044;-72
2021/04/21 01:27:46;;;;;;;19.77;12.00;;;9.00;76.50;;;;;;5039608;28;20091;-72
2021/04/21 01:30:18;;;;;;;18.02;12.27;;;8.90;76.60;;;;;;5039562;28;20029;-72
2021/04/21 01:32:48;;;;;;;15.13;11.82;;;8.90;76.70;;;;;;5039133;28;20414;-72
2021/04/21 01:35:19;;;;;;;16.30;12.23;;;9.00;76.80;;;;;;5039474;28;20413;-72
2021/04/21 01:37:46;;;;;;;17.65;12.63;;;9.00;76.80;;;;;;5039481;28;20148;-72
2021/04/21 01:40:33;;;;;;;16.02;11.40;;;9.00;77.30;;;;;;5039419;28;20065;-72
2021/04/21 01:43:49;;;;;;;21.80;13.40;;;8.90;78.60;;;;;;5039006;28;20445;-72
2021/04/21 01:46:17;;;;;;;18.80;12.90;;;8.80;77.40;;;;;;5039835;28;20026;-72
2021/04/21 01:48:43;;;;;;;17.60;12.32;;;8.70;78.10;;;;;;5039242;28;20110;-72
2021/04/21 01:51:26;;;;;;;16.65;11.68;;;8.70;77.60;;;;;;5037960;28;20029;-72
2021/04/21 01:53:56;;;;;;;16.23;12.45;;;8.60;78.40;;;;;;5039094;28;20317;-72
2021/04/21 01:56:28;;;;;;;22.23;13.80;;;8.50;78.60;;;;;;5039142;28;20026;-72
2021/04/21 01:59:05;;;;;;;16.73;12.38;;;8.50;78.50;;;;;;5039081;28;20318;-72
2021/04/21 02:01:55;;;;;;;19.10;13.00;;;8.40;78.40;;;;;;5038737;28;20037;-72
2021/04/21 02:04:34;;;;;;;17.95;13.85;;;8.40;78.50;;;;;;5038599;28;20120;-72
2021/04/21 02:07:23;;;;;;;21.05;14.95;;;8.40;78.50;;;;;;5038608;28;20052;-72
2021/04/21 02:10:06;;;;;;;24.98;14.07;;;8.30;78.50;;;;;;5038503;28;20472;-72
2021/04/21 02:12:37;;;;;;;22.58;14.77;;;8.30;78.80;;;;;;5038419;28;20418;-72
2021/04/21 02:15:26;;;;;;;19.63;14.10;;;8.20;79.20;;;;;;5038668;28;20322;-72
2021/04/21 02:18:00;;;;;;;18.15;13.68;;;8.20;79.30;;;;;;5038691;28;20025;-72
2021/04/21 02:20:42;;;;;;;22.23;15.32;;;8.10;79.70;;;;;;5038704;28;20040;-72
2021/04/21 02:23:27;;;;;;;20.67;14.70;;;8.10;79.40;;;;;;5038342;28;20037;-72
2021/04/21 02:26:18;;;;;;;21.50;14.07;;;8.00;79.70;;;;;;5038217;28;20057;-72
2021/04/21 02:29:01;;;;;;;19.77;14.82;;;7.90;80.00;;;;;;5038483;28;20021;-72
2021/04/21 02:31:56;;;;;;;22.15;15.38;;;7.80;80.90;;;;;;5038543;28;20025;-72
2021/04/21 02:34:53;;;;;;;25.85;15.90;;;7.70;81.30;;;;;;5044837;28;20111;-72
2021/04/21 02:37:23;;;;;;;22.42;15.30;;;7.70;81.70;;;;;;5038078;28;20025;-72
2021/04/21 02:40:00;;;;;;;22.67;16.17;;;7.60;82.50;;;;;;5038029;28;20037;-72
2021/04/21 02:43:07;;;;;;;25.30;15.90;;;7.60;82.50;;;;;;5038202;28;20029;-72
2021/04/21 02:46:03;;;;;;;21.52;14.88;;;7.50;82.40;;;;;;5037641;28;20029;-72
2021/04/21 02:48:57;;;;;;;23.33;16.40;;;7.40;82.80;;;;;;5044515;28;20037;-72
2021/04/21 02:51:46;;;;;;;23.02;15.40;;;7.40;82.70;;;;;;5038069;28;20244;-72
2021/04/21 02:54:34;;;;;;;20.40;15.65;;;7.30;83.10;;;;;;5037950;28;20034;-72
2021/04/21 02:57:13;;;;;;;22.30;16.00;;;7.20;83.10;;;;;;5037984;28;20037;-72
2021/04/21 02:59:44;;;;;;;25.45;16.05;;;7.30;82.60;;;;;;5037603;28;20025;-72
2021/04/21 03:02:34;;;;;;;20.90;14.70;;;7.30;83.10;;;;;;5037540;28;20034;-72
2021/04/21 03:05:21;;;;;;;23.20;15.95;;;7.30;82.90;;;;;;5039712;28;20034;-72
2021/04/21 03:07:50;;;;;;;23.63;15.48;;;7.30;83.00;;;;;;5037777;28;20026;-72
2021/04/21 03:10:18;;;;;;;23.00;15.82;;;7.30;83.10;;;;;;5037746;28;20032;-72
2021/04/21 03:13:11;;;;;;;21.35;15.15;;;7.30;83.10;;;;;;5037582;28;20028;-72
2021/04/21 03:15:43;;;;;;;20.75;14.77;;;7.20;83.40;;;;;;5037597;28;20021;-72
2021/04/21 03:18:17;;;;;;;19.10;13.32;;;7.10;83.80;;;;;;5037301;28;20494;-72
2021/04/21 03:20:46;;;;;;;21.35;14.52;;;7.10;84.00;;;;;;5037209;28;20043;-72
2021/04/21 03:23:14;;;;;;;20.73;16.08;;;7.00;84.50;;;;;;5037453;28;20353;-72
2021/04/21 03:25:42;;;;;;;21.23;16.48;;;6.80;85.10;;;;;;5036884;28;20061;-72
2021/04/21 03:28:12;;;;;;;20.48;16.55;;;6.80;85.50;;;;;;5037400;28;20067;-72
2021/04/21 03:30:39;;;;;;;20.73;15.80;;;6.80;85.30;;;;;;5037116;28;20505;-72
2021/04/21 03:33:18;;;;;;;22.73;16.02;;;6.80;85.50;;;;;;5036954;28;20026;-72
2021/04/21 03:35:50;;;;;;;23.17;17.23;;;6.80;85.50;;;;;;5037283;28;20367;-72
2021/04/21 03:38:17;;;;;;;23.60;16.05;;;6.70;86.00;;;;;;5037321;28;20140;-72
2021/04/21 03:40:43;;;;;;;22.92;16.77;;;6.70;86.30;;;;;;5036907;28;20036;-72
2021/04/21 03:43:10;;;;;;;23.02;16.65;;;6.80;86.50;;;;;;5037184;28;20025;-72
2021/04/21 03:45:37;;;;;;;24.48;17.05;;;6.90;85.80;;;;;;5037062;28;20374;-72
2021/04/21 03:48:03;;;;;;;20.70;15.68;;;6.90;85.60;;;;;;5037091;28;20028;-72
2021/04/21 03:50:30;;;;;;;20.83;14.60;;;6.90;85.40;;;;;;5037087;28;20064;-72
2021/04/21 03:53:01;;;;;;;23.02;16.58;;;6.90;85.50;;;;;;5036927;28;20318;-72
2021/04/21 03:55:29;;;;;;;24.90;16.98;;;6.80;85.60;;;;;;5036956;28;20053;-72
2021/04/21 03:57:59;;;;;;;27.05;17.17;;;6.80;85.70;;;;;;5036670;28;20025;-72
2021/04/21 04:00:26;;;;;;;22.63;17.23;;;6.70;85.90;;;;;;5036844;28;20056;-72
2021/04/21 04:02:57;;;;;;;22.00;16.15;;;6.70;85.90;;;;;;5036603;28;20410;-72
2021/04/21 04:05:27;;;;;;;22.67;17.10;;;6.70;86.60;;;;;;5036870;28;20156;-72
2021/04/21 04:07:59;;;;;;;24.30;16.80;;;6.80;86.90;;;;;;5036933;28;20033;-72
2021/04/21 04:10:26;;;;;;;24.40;17.15;;;6.80;86.40;;;;;;5036890;28;20108;-72
2021/04/21 04:12:54;;;;;;;25.25;17.65;;;6.80;86.20;;;;;;5036755;28;20021;-72
2021/04/21 04:15:21;;;;;;;22.80;17.10;;;6.80;86.70;;;;;;5039404;28;20033;-72
2021/04/21 04:17:49;;;;;;;24.30;18.30;;;6.70;87.00;;;;;;5040662;28;20018;-72
2021/04/21 04:20:16;;;;;;;27.13;18.05;;;6.70;87.40;;;;;;5040605;28;20084;-72
2021/04/21 04:22:49;;;;;;;23.67;17.85;;;6.60;87.30;;;;;;5040876;28;20025;-72
2021/04/21 04:25:16;;;;;;;23.40;16.77;;;6.70;87.00;;;;;;5040337;28;20064;-72
2021/04/21 04:27:43;;;;;;;23.92;17.65;;;6.60;87.50;;;;;;5040533;28;20421;-72
2021/04/21 04:30:10;;;;;;;23.98;17.90;;;6.60;87.80;;;;;;5040777;28;20026;-72
2021/04/21 04:32:40;;;;;;;24.85;18.00;;;6.60;87.90;;;;;;5040602;28;20029;-72
2021/04/21 04:35:09;;;;;;;23.77;17.42;;;6.70;87.80;;;;;;5040293;28;20030;-72
2021/04/21 04:37:40;;;;;;;23.70;17.02;;;6.60;88.00;;;;;;5040601;28;20097;-72
2021/04/21 04:40:12;;;;;;;22.90;16.75;;;6.70;88.30;;;;;;5040251;28;20418;-72
2021/04/21 04:42:38;;;;;;;21.13;16.95;;;6.70;88.40;;;;;;5040559;28;20362;-72
2021/04/21 04:45:06;;;;;;;27.27;18.67;;;6.70;88.40;;;;;;5040428;28;20045;-72
2021/04/21 04:48:06;;;;;;;22.75;17.20;;;6.70;88.40;;;;;;5040365;28;20153;-72
2021/04/21 04:50:33;;;;;;;24.00;18.00;;;6.80;88.30;;;;;;5049962;28;20029;-72
2021/04/21 04:53:00;;;;;;;21.80;16.00;;;6.90;88.00;;;;;;5040169;28;20030;-72
2021/04/21 04:55:27;;;;;;;21.30;16.95;;;6.90;87.20;;;;;;5039914;28;20417;-72
2021/04/21 04:57:55;;;;;;;23.63;16.13;;;7.00;86.90;;;;;;5039925;28;20013;-72
2021/04/21 05:00:24;;;;;;;21.27;15.38;;;7.10;86.60;;;;;;5040205;28;20299;-72
2021/04/21 05:02:59;;;;;;;22.67;14.70;;;7.10;86.40;;;;;;5039813;28;20029;-72
2021/04/21 05:05:26;;;;;;;18.73;13.80;;;7.20;86.70;;;;;;5040050;28;20034;-72
2021/04/21 05:08:03;;;;;;;27.27;14.45;;;7.30;86.70;;;;;;5040034;28;20029;-72
2021/04/21 05:10:31;;;;;;;25.77;13.70;;;7.40;86.40;;;;;;5039739;28;20032;-72
2021/04/21 05:12:58;;;;;;;22.77;15.35;;;7.50;86.30;;;;;;5039834;28;20044;-72
2021/04/21 05:15:38;;;;;;;20.40;15.45;;;7.60;86.30;;;;;;5039820;28;20026;-72
2021/04/21 05:18:22;;;;;;;19.30;13.77;;;7.70;86.30;;;;;;5039530;28;20449;-72
2021/04/21 05:21:21;;;;;;;19.60;14.43;;;7.80;86.30;;;;;;5039821;28;20030;-72
2021/04/21 05:23:53;;;;;;;18.35;14.43;;;7.90;86.50;;;;;;5039759;28;20104;-72
2021/04/21 05:26:49;;;;;;;17.67;14.10;;;8.10;87.00;;;;;;5038967;28;20055;-72
2021/04/21 05:29:15;;;;;;;20.15;14.50;;;8.20;86.50;;;;;;5039659;28;20025;-72
2021/04/21 05:32:07;;;;;;;21.13;15.77;;;8.30;85.50;;;;;;5039604;28;20397;-72
2021/04/21 05:35:10;;;;;;;21.13;15.10;;;8.40;82.50;;;;;;5039193;28;20025;-72
2021/04/21 05:38:25;;;;;;;19.10;13.50;;;8.60;82.10;;;;;;5039487;28;20021;-72
2021/04/21 05:41:18;;;;;;;15.45;11.95;;;8.70;82.60;;;;;;5038941;28;20456;-72
2021/04/21 05:43:56;;;;;;;16.30;12.63;;;8.80;81.30;;;;;;5039353;28;20029;-72
2021/04/21 05:46:40;;;;;;;16.65;12.80;;;8.90;81.30;;;;;;5039020;28;20040;-72
2021/04/21 05:49:17;;;;;;;19.98;12.48;;;9.00;81.50;;;;;;5039298;28;20043;-72
2021/04/21 05:52:01;;;;;;;19.85;14.18;;;9.10;81.50;;;;;;5039225;28;20117;-72
2021/04/21 05:54:27;;;;;;;19.52;12.73;;;9.20;78.90;;;;;;5039111;28;20333;-72
2021/04/21 05:57:20;;;;;;;18.35;13.88;;;9.30;79.10;;;;;;5038825;28;20038;-72
2021/04/21 05:59:57;;;;;;;18.88;12.65;;;9.40;79.50;;;;;;5039100;28;20034;-72
2021/04/21 06:02:26;;;;;;;16.10;13.05;;;9.50;78.70;;;;;;5039060;28;20032;-72
2021/04/21 06:05:11;;;;;;;16.40;13.27;;;9.50;78.30;;;;;;5038572;28;20029;-72
2021/04/21 06:07:37;;;;;;;19.05;13.73;;;9.50;77.30;;;;;;5038731;28;20024;-72
2021/04/21 06:10:29;;;;;;;18.83;14.40;;;9.60;77.10;;;;;;5038621;28;20021;-72
2021/04/21 06:13:03;;;;;;;17.83;14.00;;;9.60;77.00;;;;;;5038809;28;20036;-72
2021/04/21 06:15:33;;;;;;;17.75;13.43;;;9.70;77.20;;;;;;5038383;28;20026;-72
2021/04/21 06:18:02;;;;;;;18.85;13.45;;;9.90;77.00;;;;;;5038789;28;20025;-72
2021/04/21 06:20:28;;;;;;;15.75;12.63;;;10.00;76.30;;;;;;5038758;28;20100;-72
2021/04/21 06:23:12;;;;;;;16.48;13.13;;;10.20;76.80;;;;;;5038236;28;20038;-72
2021/04/21 06:25:41;;;;;;;21.88;12.90;;;10.40;77.40;;;;;;5038055;28;20064;-72
2021/04/21 06:28:08;;;;;;;15.10;12.38;;;10.40;76.20;;;;;;5038512;28;20112;-72
2021/04/21 06:30:35;;;;;;;15.70;12.38;;;10.60;75.60;;;;;;5038342;28;20029;-72
2021/04/21 06:33:02;;;;;;;14.80;11.77;;;10.80;76.40;;;;;;5038051;28;20033;-72
2021/04/21 06:35:29;;;;;;;12.75;10.27;;;11.20;75.70;;;;;;5038004;28;20021;-72
2021/04/21 06:37:55;;;;;;;14.75;11.20;;;11.70;72.30;;;;;;5037330;28;20018;-72
2021/04/21 06:40:26;;;;;;;14.77;10.15;;;12.40;69.70;;;;;;5038374;28;20030;-72
2021/04/21 06:42:56;;;;;;;13.23;10.60;;;12.90;67.70;;;;;;5038305;28;20036;-72
2021/04/21 06:45:34;;;;;;;13.38;10.20;;;13.10;66.40;;;;;;5038130;28;20052;-72
2021/04/21 06:48:03;;;;;;;14.45;10.82;;;13.50;66.60;;;;;;5037870;28;20440;-72
2021/04/21 06:50:31;;;;;;;14.80;11.10;;;13.60;67.00;;;;;;5037824;28;20060;-72
2021/04/21 06:53:02;;;;;;;11.25;10.05;;;13.60;66.10;;;;;;5037891;28;20028;-72
2021/04/21 06:55:29;;;;;;;14.02;11.13;;;13.40;67.00;;;;;;5037985;28;20095;-72
2021/04/21 06:57:55;;;;;;;16.10;11.70;;;13.40;67.30;;;;;;5037649;28;20021;-72
2021/04/21 07:00:26;;;;;;;12.68;9.90;;;13.60;66.70;;;;;;5037604;28;20025;-72
2021/04/21 07:03:00;;;;;;;13.57;9.60;;;13.80;67.10;;;;;;5037573;28;20018;-72
2021/04/21 07:05:33;;;;;;;13.75;10.13;;;13.90;66.20;;;;;;5037814;28;20040;-72
2021/04/21 07:07:59;;;;;;;14.48;9.20;;;14.20;66.00;;;;;;5037851;28;20032;-72
2021/04/21 07:10:25;;;;;;;11.10;8.40;;;14.40;67.10;;;;;;5037763;28;20041;-72
2021/04/21 07:12:51;;;;;;;13.52;8.82;;;14.60;64.80;;;;;;5037629;28;20302;-72
2021/04/21 07:15:19;;;;;;;13.75;9.80;;;15.00;62.70;;;;;;5037278;28;20029;-72
2021/04/21 07:17:46;;;;;;;15.02;10.10;;;15.30;63.20;;;;;;5037583;28;20100;-72
2021/04/21 07:20:13;;;;;;;11.95;9.13;;;15.70;61.50;;;;;;5037221;28;20026;-72
2021/04/21 07:22:39;;;;;;;13.23;10.15;;;16.00;61.30;;;;;;5037571;28;20028;-72
2021/04/21 07:25:06;;;;;;;12.10;9.48;;;16.20;61.00;;;;;;5037359;28;20358;-72
2021/04/21 07:27:32;;;;;;;14.57;9.40;;;16.50;60.60;;;;;;5037487;28;20033;-72
2021/04/21 07:29:57;;;;;;;14.60;10.00;;;16.60;57.30;;;;;;5037138;28;20034;-72
2021/04/21 07:32:24;;;;;;;12.63;8.52;;;16.70;59.70;;;;;;5037267;28;20029;-72
2021/04/21 07:35:01;;;;;;;12.07;9.20;;;17.00;57.60;;;;;;5037035;28;20402;-72
2021/04/21 07:37:38;;;;;;;15.95;9.55;;;17.10;58.80;;;;;;5036991;28;20430;-72
2021/04/21 07:40:23;;;;;;;11.88;9.43;;;17.30;56.90;;;;;;5037224;28;20033;-72
2021/04/21 07:42:50;;;;;;;14.55;9.23;;;17.50;57.00;;;;;;5037208;28;20026;-72
2021/04/21 07:45:20;;;;;;;15.80;9.30;;;17.60;56.80;;;;;;5037053;28;20029;-72
2021/04/21 07:47:46;;;;;;;14.32;9.15;;;17.60;55.80;;;;;;5036834;28;20104;-72
2021/04/21 07:50:12;;;;;;;13.93;9.27;;;17.60;56.40;;;;;;5036799;28;20036;-72
2021/04/21 07:52:38;;;;;;;11.90;8.85;;;17.80;56.40;;;;;;5037031;28;20026;-72
2021/04/21 07:55:11;;;;;;;13.30;8.77;;;18.00;55.80;;;;;;5036557;28;20034;-72
2021/04/21 07:57:38;;;;;;;14.30;9.48;;;17.80;55.60;;;;;;5037064;28;20079;-72
2021/04/21 08:00:07;;;;;;;14.20;9.35;;;18.00;55.40;;;;;;5037025;28;20380;-72
2021/04/21 08:02:35;;;;;;;11.65;9.30;;;18.00;54.60;;;;;;5036600;28;20044;-72
2021/04/21 08:05:09;;;;;;;14.13;9.60;;;18.00;54.60;;;;;;5036883;28;20113;-72
2021/04/21 08:07:38;;;;;;;17.98;9.40;;;18.10;54.20;;;;;;5036746;28;20021;-72
2021/04/21 08:10:08;;;;;;;12.93;8.73;;;18.30;56.40;;;;;;5036878;28;20057;-72
2021/04/21 08:12:37;;;;;;;12.93;9.48;;;18.50;55.60;;;;;;5036458;28;20022;-72
2021/04/21 08:15:09;;;;;;;14.23;10.73;;;19.00;54.20;;;;;;5036791;28;20026;-72
2021/04/21 08:18:05;;;;;;;16.38;9.90;;;18.90;55.90;;;;;;5036760;28;20018;-72
2021/04/21 08:20:34;;;;;;;14.30;10.35;;;18.90;54.60;;;;;;5036472;28;20038;-72
2021/04/21 08:23:02;;;;;;;14.98;9.43;;;18.90;53.80;;;;;;5036455;28;20025;-72
2021/04/21 08:25:28;;;;;;;16.08;10.02;;;18.80;53.30;;;;;;5036222;28;20171;-72
2021/04/21 08:27:55;;;;;;;15.25;9.85;;;18.80;53.00;;;;;;5036670;28;20094;-72
2021/04/21 08:30:21;;;;;;;12.60;9.55;;;18.80;54.50;;;;;;5036415;28;20436;-72
2021/04/21 08:32:47;;;;;;;14.82;9.68;;;18.70;54.80;;;;;;5036308;28;20426;-72
2021/04/21 08:35:15;;;;;;;12.15;9.48;;;18.70;56.50;;;;;;5036593;28;20037;-72
2021/04/21 08:37:41;;;;;;;13.95;9.85;;;18.70;54.20;;;;;;5036313;28;20014;-72
2021/04/21 08:40:09;;;;;;;16.63;8.90;;;18.60;55.20;;;;;;5036297;28;20052;-72
2021/04/21 08:42:38;;;;;;;13.85;9.45;;;18.80;54.80;;;;;;5036586;28;20097;-72
2021/04/21 08:45:05;;;;;;;14.98;9.30;;;19.20;54.70;;;;;;5036149;28;20040;-72
2021/04/21 08:47:33;;;;;;;13.68;8.82;;;19.60;52.40;;;;;;5036495;28;20365;-72
2021/04/21 08:49:59;;;;;;;15.75;8.77;;;19.50;53.80;;;;;;5036267;28;20030;-72
2021/04/21 08:52:29;;;;;;;12.88;9.45;;;19.30;54.10;;;;;;5036459;28;20030;-72
2021/04/21 08:54:56;;;;;;;12.98;8.57;;;18.90;53.70;;;;;;5036649;28;20105;-72
2021/04/21 08:57:22;;;;;;;16.38;8.25;;;19.20;52.10;;;;;;5036425;28;20018;-72
2021/04/21 08:59:49;;;;;;;15.55;9.45;;;19.40;54.70;;;;;;5036239;28;20045;-72
2021/04/21 09:02:16;;;;;;;12.55;7.95;;;19.70;52.60;;;;;;5039811;28;20021;-72
2021/04/21 09:04:45;;;;;;;12.75;8.10;;;19.50;52.70;;;;;;5040043;28;20030;-72
2021/04/21 09:07:11;;;;;;;14.20;8.30;;;19.70;53.30;;;;;;5040091;28;20042;-72
2021/04/21 09:09:38;;;;;;;14.85;8.43;;;20.00;50.50;;;;;;5040081;28;20049;-72
2021/04/21 09:12:06;;;;;;;13.60;7.97;;;20.10;51.40;;;;;;5040001;28;20318;-72
2021/04/21 09:14:32;;;;;;;10.40;7.28;;;20.10;52.30;;;;;;5039828;28;20033;-72
2021/04/21 09:16:58;;;;;;;12.70;7.63;;;19.90;50.90;;;;;;5039618;28;20028;-72
2021/04/21 09:19:24;;;;;;;13.15;8.13;;;20.00;52.10;;;;;;5039595;28;20021;-72
2021/04/21 09:22:10;;;;;;;15.82;7.47;;;20.30;49.90;;;;;;5039510;28;20432;-72
2021/04/21 09:24:38;;;;;;;15.75;8.55;;;20.70;51.00;;;;;;5039405;28;20036;-72
2021/04/21 09:27:39;;;;;;;12.73;7.88;;;20.60;48.70;;;;;;5039182;28;20450;-72
2021/04/21 09:30:26;;;;;;;12.93;7.05;;;20.70;48.10;;;;;;5037454;28;20025;-72
2021/04/21 09:32:53;;;;;;;14.15;7.55;;;20.60;51.80;;;;;;5039361;28;20133;-72
2021/04/21 09:35:22;;;;;;;12.90;7.10;;;20.60;52.40;;;;;;5039170;28;20413;-72
2021/04/21 09:37:48;;;;;;;13.10;8.00;;;20.80;51.70;;;;;;5038220;28;20057;-72
2021/04/21 09:40:31;;;;;;;14.75;7.25;;;21.00;49.00;;;;;;5039466;28;20017;-72
2021/04/21 09:42:57;;;;;;;14.60;8.35;;;20.80;50.80;;;;;;5039443;28;20029;-72
2021/04/21 09:45:58;;;;;;;14.23;8.77;;;20.70;49.90;;;;;;5038982;28;20035;-72
2021/04/21 09:48:26;;;;;;;15.80;8.15;;;20.90;50.10;;;;;;5038502;28;20088;-72
2021/04/21 09:51:04;;;;;;;15.13;9.85;;;21.10;51.20;;;;;;5039318;28;20377;-72
2021/04/21 09:53:39;;;;;;;13.90;8.55;;;20.80;48.90;;;;;;5039142;28;20441;-72
2021/04/21 09:56:25;;;;;;;12.98;7.22;;;20.70;51.10;;;;;;5039249;28;20057;-72
2021/04/21 09:59:01;;;;;;;18.10;8.68;;;21.00;49.80;;;;;;5038720;28;20083;-70
2021/04/21 10:01:28;;;;;;;;;;;21.10;47.80;;;;;;5039612;28;20034;-72
2021/04/21 10:04:06;;;;;;;13.38;7.78;;;20.90;50.60;;;;;;5038686;28;19955;-72
2021/04/21 10:06:32;;;;;;;12.88;7.93;;;20.80;50.40;;;;;;5038682;28;20036;-72
2021/04/21 10:08:58;;;;;;;13.27;8.35;;;21.10;49.20;;;;;;5038969;28;20362;-70
2021/04/21 10:11:24;;;;;;;12.98;7.93;;;21.20;50.40;;;;;;5038020;28;20057;-72
2021/04/21 10:13:52;;;;;;;12.40;8.15;;;21.10;51.30;;;;;;5036884;28;20037;-72
2021/04/21 10:16:19;;;;;;;12.85;8.38;;;21.10;49.80;;;;;;5044400;28;20044;-72
2021/04/21 10:18:45;;;;;;;11.73;8.30;;;21.00;48.70;;;;;;5058560;28;20047;-72
2021/04/21 10:21:13;;;;;;;13.80;9.07;;;21.10;50.20;;;;;;5058356;28;20108;-72
2021/04/21 10:23:40;;;;;;;13.73;8.40;;;20.90;50.50;;;;;;5058387;28;20029;-70
2021/04/21 10:26:11;;;;;;;12.23;8.07;;;20.90;49.60;;;;;;5058189;28;20322;-72
2021/04/21 10:28:39;;;;;;;13.55;8.70;;;20.90;48.80;;;;;;5058253;28;20033;-72
2021/04/21 10:31:11;;;;;;;12.05;8.23;;;20.90;51.10;;;;;;5058139;28;20025;-72
2021/04/21 10:33:37;;;;;;;13.55;7.45;;;21.10;49.90;;;;;;5058149;28;20043;-72
2021/04/21 10:36:08;;;;;;;10.60;7.97;;;21.00;49.40;;;;;;5058329;28;20072;-72
2021/04/21 10:38:35;;;;;;;12.85;8.23;;;20.90;48.90;;;;;;5057958;28;20020;-72
2021/04/21 10:41:27;;;;;;;10.35;7.47;;;21.10;51.50;;;;;;5058017;28;20033;-72
2021/04/21 10:44:16;;;;;;;11.48;8.40;;;21.00;52.20;;;;;;5057828;28;20025;-72
2021/04/21 10:47:00;;;;;;;12.20;9.63;;;20.70;50.40;;;;;;5058196;28;20037;-72
2021/04/21 10:49:38;;;;;;;13.45;8.15;;;19.80;49.30;;;;;;5057889;28;20317;-72
2021/04/21 10:52:22;;;;;;;12.38;8.23;;;19.70;52.80;;;;;;5057656;28;20033;-72
2021/04/21 10:54:52;;;;;;;10.60;8.30;;;19.50;51.90;;;;;;5056496;28;20087;-72
2021/04/21 10:57:34;;;;;;;10.82;8.35;;;19.70;52.60;;;;;;5057948;28;20063;-72
2021/04/21 11:00:18;;;;;;;10.82;7.30;;;19.90;53.50;;;;;;5057879;28;20033;-72
2021/04/21 11:03:27;;;;;;;10.90;7.10;;;19.80;50.80;;;;;;5057879;28;20029;-72
2021/04/21 11:06:02;;;;;;;10.95;8.43;;;19.90;55.00;;;;;;5057188;28;20090;-70
2021/04/21 11:08:52;;;;;;;10.88;7.50;;;20.60;50.50;;;;;;5057775;28;20051;-72
2021/04/21 11:11:42;;;;;;;11.43;8.52;;;20.70;51.60;;;;;;5057429;28;20025;-72
2021/04/21 11:14:10;;;;;;;11.90;7.93;;;20.60;51.80;;;;;;5057232;28;20143;-72
2021/04/21 11:16:38;;;;;;;9.40;7.57;;;20.60;52.00;;;;;;5057608;28;20049;-72
2021/04/21 11:19:18;;;;;;;9.98;8.00;;;19.20;51.90;;;;;;5057153;28;20057;-72
2021/04/21 11:21:46;;;;;;;10.30;7.72;;;18.20;56.30;;;;;;5057523;28;20037;-72
2021/04/21 11:24:12;;;;;;;11.18;8.10;;;18.30;54.50;;;;;;5057023;28;20033;-72
2021/04/21 11:26:45;;;;;;;10.15;8.50;;;17.80;54.10;;;;;;5056887;28;20049;-72
2021/04/21 11:29:21;;;;;;;10.20;7.28;;;17.40;54.90;;;;;;5057055;28;20111;-72
2021/04/21 11:31:50;;;;;;;12.00;7.45;;;17.40;57.40;;;;;;5057033;28;20068;-72
2021/04/21 11:34:18;;;;;;;11.20;7.30;;;17.60;56.30;;;;;;5057152;28;20040;-72
2021/04/21 11:36:49;;;;;;;10.40;8.18;;;17.70;56.30;;;;;;5057242;28;20021;-72
2021/04/21 11:39:34;;;;;;;12.77;8.70;;;18.20;56.10;;;;;;5056929;28;20417;-72
2021/04/21 11:42:16;;;;;;;11.30;8.25;;;18.70;55.40;;;;;;5056888;28;20484;-72
2021/04/21 11:45:03;;;;;;;10.10;8.05;;;19.40;53.40;;;;;;5057065;28;20029;-72
2021/04/21 11:48:00;;;;;;;9.05;7.47;;;19.70;51.30;;;;;;5056759;28;20037;-72
2021/04/21 11:50:29;;;;;;;9.57;7.65;;;20.00;51.60;;;;;;5057121;28;20040;-72
2021/04/21 11:52:58;;;;;;;11.00;7.00;;;20.00;50.90;;;;;;5056902;28;20036;-72
2021/04/21 11:55:30;;;;;;;11.55;8.63;;;19.30;54.30;;;;;;5056963;28;20036;-72
2021/04/21 11:58:02;;;;;;;11.00;8.25;;;18.50;53.90;;;;;;5056956;28;20318;-72
2021/04/21 12:00:31;;;;;;;14.18;8.85;;;17.90;54.20;;;;;;5056973;28;20146;-72
2021/04/21 12:02:57;;;;;;;10.55;9.02;;;17.50;55.00;;;;;;5056596;28;20083;-72
2021/04/21 12:05:26;;;;;;;11.68;8.80;;;17.60;56.50;;;;;;5056527;28;20056;-72
2021/04/21 12:07:52;;;;;;;11.98;9.25;;;18.00;60.30;;;;;;5056547;28;20040;-72
2021/04/21 12:10:20;;;;;;;10.27;9.20;;;18.50;56.10;;;;;;5056834;28;20036;-72
2021/04/21 12:12:46;;;;;;;11.10;8.77;;;18.80;54.70;;;;;;5056209;28;20035;-72
2021/04/21 12:15:14;;;;;;;10.43;8.43;;;18.80;54.10;;;;;;5056398;28;20029;-72
2021/04/21 12:17:57;;;;;;;12.93;9.30;;;18.60;55.30;;;;;;5056435;28;20440;-72
2021/04/21 12:20:33;;;;;;;11.48;10.15;;;18.00;53.50;;;;;;5056752;28;20075;-72
2021/04/21 12:22:59;;;;;;;13.07;9.40;;;17.30;54.80;;;;;;5056690;28;20025;-72
2021/04/21 12:25:31;;;;;;;12.20;9.57;;;16.70;55.70;;;;;;5056143;28;20441;-72
2021/04/21 12:28:00;;;;;;;11.15;9.50;;;16.30;58.90;;;;;;5056670;28;20037;-72
2021/04/21 12:30:32;;;;;;;12.75;8.95;;;16.10;58.50;;;;;;5056356;28;20025;-72
2021/04/21 12:33:10;;;;;;;11.75;8.63;;;16.00;59.10;;;;;;5056606;28;20427;-72
2021/04/21 12:35:36;;;;;;;10.73;9.57;;;16.00;60.70;;;;;;5057974;28;20028;-72
2021/04/21 12:38:03;;;;;;;13.05;10.07;;;16.00;60.70;;;;;;5060599;28;20309;-72
2021/04/21 12:40:33;;;;;;;12.88;9.50;;;16.00;59.10;;;;;;5060560;28;20028;-72
2021/04/21 12:43:16;;;;;;;11.07;9.50;;;15.90;59.70;;;;;;5060234;28;20029;-72
2021/04/21 12:45:44;;;;;;;11.10;9.60;;;15.90;59.70;;;;;;5060213;28;20033;-72
2021/04/21 12:48:26;;;;;;;14.15;9.32;;;15.90;60.90;;;;;;5060120;28;20036;-72
2021/04/21 12:50:54;;;;;;;11.63;10.43;;;15.80;60.70;;;;;;5060047;28;20478;-72
2021/04/21 12:53:23;;;;;;;12.18;10.70;;;15.80;60.50;;;;;;5060094;28;20040;-72
2021/04/21 12:56:04;;;;;;;12.45;10.23;;;15.70;61.20;;;;;;5060261;28;20325;-72
2021/04/21 12:58:36;;;;;;;13.90;10.25;;;15.70;61.50;;;;;;5059919;28;20117;-72
2021/04/21 13:01:16;;;;;;;8.23;7.38;;;15.60;61.40;;;;;;5060169;28;20025;-72
2021/04/21 13:04:00;;;;;;;9.88;8.73;;;15.60;60.00;;;;;;5060057;28;20113;-72
2021/04/21 13:06:40;;;;;;;9.45;8.40;;;15.10;59.20;;;;;;5060103;28;20043;-72
2021/04/21 13:09:09;;;;;;;8.50;7.32;;;15.00;61.30;;;;;;5059998;28;20033;-72